Latest Coastal Weather Observations for Hopetoun North

IDW60701

Issued at 9:12 am WST Tuesday 25 June 2024 (issued every 10 minutes, with the page automatically refreshed every 10 minutes)

About coastal observations | Map of coastal stations | Coastal observations for WA | Marine services | Other Formats
Station Details ID: 009961 Name: HOPETOUN NORTH Lat: -33.93 Lon: 120.13 Height: 26.0 m
Data from the previous 72 hours. | See also: Recent months at Hopetoun North
Date/Time
WST
Wind Sea
Height
m
Swell Vis
km
Cloud Weather Temp
°C
Press
MSL
hPa
Rain since
9am
mm
Dir  Spd
kts
Gust
kts
Height
m
Period
s
Dir
25/09:00am WNW 5 9 - - - - - - - 9.2 1017.4 5.8
25/08:30am NW 5 7 - - - - - - - 8.5 1017.4 5.8
25/08:00am NW 6 9 - - - - - - - 8.6 1017.3 5.8
25/07:30am NW 4 6 - - - - - - - 8.9 1017.2 5.8
25/07:00am W 6 9 - - - - - - - 8.8 1017.4 5.6
25/06:30am WNW 6 9 - - - - - - - 8.8 1017.4 5.6
25/06:00am WNW 6 9 - - - - - - Rain 9.2 1017.6 5.6
25/05:30am WNW 7 11 - - - - - - - 8.9 1017.6 4.8
25/05:00am WNW 6 9 - - - - - - - 8.6 1017.5 4.8
25/04:30am W 5 10 - - - - - - - 9.2 1017.6 4.6
25/04:00am WNW 6 9 - - - - - - - 8.8 1017.8 4.2
25/03:30am NW 5 7 - - - - - - - 9.0 1018.0 2.8
25/03:00am WNW 5 9 - - - - - - - 9.5 1018.4 2.8
25/02:30am NW 4 7 - - - - - - - 9.8 1018.6 2.8
25/02:00am W 8 17 - - - - - - - 10.3 1018.6 2.8
25/01:30am SW 9 17 - - - - - - - 11.1 1018.9 2.6
25/01:00am SSW 8 12 - - - - - - - 11.6 1018.9 2.6
25/12:30am S 11 16 - - - - - - - 11.6 1019.1 2.6
25/12:00am SSW 9 13 - - - - - - - 12.9 1019.4 1.8
 
Date/Time
WST
Wind Sea
Height
m
Swell Vis
km
Cloud Weather Temp
°C
Press
MSL
hPa
Rain since
9am
mm
Dir  Spd
kts
Gust
kts
Height
m
Period
s
Dir
24/11:30pm SSW 6 10 - - - - - - - 11.8 1019.7 1.8
24/11:00pm SSW 14 23 - - - - - - - 11.3 1020.3 1.8
24/10:30pm S 9 14 - - - - - - - 12.0 1020.4 1.8
24/10:00pm SSW 6 9 - - - - - - - 12.1 1020.6 1.8
24/09:30pm SSW 7 11 - - - - - - - 12.2 1020.7 1.8
24/09:00pm S 11 19 - - - - - - - 11.5 1021.0 1.8
24/08:30pm S 9 13 - - - - - - - 12.6 1021.1 1.8
24/08:00pm SSW 9 13 - - - - - - - 12.8 1021.4 1.8
24/07:30pm S 13 19 - - - - - - - 12.8 1021.5 1.8
24/07:00pm SSW 13 19 - - - - - - - 13.2 1021.2 1.8
24/06:30pm SSW 11 17 - - - - - - - 13.3 1021.1 1.8
24/06:00pm SSW 12 20 - - - - - - - 13.6 1021.2 1.8
24/05:30pm SSW 11 17 - - - - - - - 13.6 1021.1 1.8
24/05:00pm SSW 12 17 - - - - - - - 13.7 1021.0 1.8
24/04:30pm SSW 12 18 - - - - - - - 13.7 1021.0 1.8
24/04:00pm S 12 18 - - - - - - - 13.7 1021.0 1.8
24/03:30pm S 15 21 - - - - - - - 13.7 1021.1 1.8
24/03:00pm SSE 8 12 - - - - - - - 13.4 1021.1 1.8
24/02:30pm S 10 17 - - - - - - - 13.7 1021.0 1.8
24/02:00pm SSW 12 17 - - - - - - - 14.4 1021.0 1.8
24/01:30pm S 12 17 - - - - - - - 13.9 1021.0 1.8
24/01:00pm S 12 17 - - - - - - - 15.2 1021.1 1.8
24/12:30pm SW 10 15 - - - - - - - 14.9 1021.4 1.8
24/12:00pm WSW 11 18 - - - - - - - 14.5 1021.8 1.8
24/11:30am SW 9 13 - - - - - - - 13.6 1022.2 1.8
24/11:00am WSW 9 14 - - - - - - - 13.1 1022.6 1.8
24/10:30am WSW 12 20 - - - - - - - 11.9 1023.0 1.8
24/10:02am SW 15 26 - - - - - - - 11.9 1023.1 1.4
24/10:00am SW 13 21 - - - - - - - 12.2 1023.1 1.2
24/09:30am WSW 8 16 - - - - - - - 13.3 1023.1 0.2
24/09:00am SSW 11 16 - - - - - - - 14.2 1022.8 20.8
24/08:30am SSW 13 18 - - - - - - - 13.6 1022.8 20.8
24/08:00am SW 9 15 - - - - - - - 12.6 1022.7 20.8
24/07:30am SSW 12 16 - - - - - - - 12.5 1022.4 20.8
24/07:00am SW 10 15 - - - - - - - 12.0 1022.6 20.8
24/06:30am WSW 12 16 - - - - - - - 12.1 1022.2 20.0
24/06:00am SW 12 18 - - - - - - Rain 11.9 1021.9 16.8
24/05:30am W 9 14 - - - - - - - 10.7 1021.8 15.6
24/05:00am WSW 9 13 - - - - - - - 11.0 1021.8 14.0
24/04:30am W 9 13 - - - - - - - 10.4 1021.9 10.2
24/04:00am W 8 13 - - - - - - - 10.3 1022.0 8.0
24/03:30am W 11 15 - - - - - - - 10.4 1022.0 7.2
24/03:00am W 9 15 - - - - - - - 10.7 1022.4 7.2
24/02:30am W 8 13 - - - - - - - 10.4 1022.3 7.2
24/02:00am W 9 14 - - - - - - - 9.7 1022.5 7.2
24/01:30am WNW 7 12 - - - - - - - 9.5 1022.5 7.2
24/01:00am WNW 7 10 - - - - - - - 9.7 1022.7 7.2
24/12:30am WNW 7 12 - - - - - - - 10.2 1023.0 7.2
24/12:00am W 9 14 - - - - - - - 10.8 1023.3 7.2
 
Date/Time
WST
Wind Sea
Height
m
Swell Vis
km
Cloud Weather Temp
°C
Press
MSL
hPa
Rain since
9am
mm
Dir  Spd
kts
Gust
kts
Height
m
Period
s
Dir
23/11:30pm W 10 14 - - - - - - - 10.7 1023.5 7.2
23/11:00pm W 9 14 - - - - - - - 10.8 1023.8 7.2
23/10:30pm W 8 11 - - - - - - - 10.4 1024.0 7.2
23/10:00pm WNW 7 10 - - - - - - - 10.2 1024.3 7.2
23/09:30pm WNW 7 10 - - - - - - - 10.3 1024.3 7.2
23/09:00pm W 8 11 - - - - - - - 11.0 1024.4 7.2
23/08:30pm W 8 11 - - - - - - - 11.4 1024.4 7.2
23/08:00pm W 5 9 - - - - - - - 11.3 1024.5 7.2
23/07:30pm SW 10 16 - - - - - - - 11.9 1024.3 3.2
23/07:00pm SW 11 19 - - - - - - - 12.1 1024.2 2.2
23/06:30pm SW 11 15 - - - - - - - 13.1 1023.9 1.4
23/06:00pm WSW 12 16 - - - - - - - 13.6 1023.9 1.2
23/05:30pm WSW 12 21 - - - - - - - 14.2 1023.8 1.2
23/05:00pm SSW 14 20 - - - - - - - 14.4 1023.6 1.2
23/04:30pm SSW 14 19 - - - - - - - 14.8 1023.5 1.2
23/04:10pm SSW 15 25 - - - - - - - 14.9 1023.5 1.2
23/04:00pm SW 15 25 - - - - - - - 14.9 1023.5 1.2
23/03:37pm SW 16 26 - - - - - - - 15.1 1023.3 1.2
23/03:30pm SW 16 23 - - - - - - - 15.4 1023.3 1.2
23/03:00pm SW 13 20 - - - - - - - 14.8 1023.0 1.2
23/02:30pm SSW 15 24 - - - - - - - 13.4 1023.1 1.2
23/02:00pm SSW 15 21 - - - - - - - 13.7 1022.9 1.2
23/01:30pm WSW 10 13 - - - - - - - 13.4 1022.9 1.2
23/01:00pm SSW 11 17 - - - - - - - 12.7 1022.8 0.8
23/12:48pm SSW 17 27 - - - - - - - 12.5 1023.0 0.8
23/12:42pm SSW 18 27 - - - - - - - 13.0 1023.1 0.4
23/12:30pm SW 16 23 - - - - - - - 16.3 1022.9 0.0
23/12:00pm WSW 14 21 - - - - - - - 15.9 1023.0 0.0
23/11:30am WSW 16 23 - - - - - - - 15.4 1023.3 0.0
23/11:00am WSW 15 24 - - - - - - - 14.7 1023.5 0.0
23/10:30am WSW 14 21 - - - - - - - 13.6 1023.7 0.0
23/10:00am WSW 15 24 - - - - - - - 13.6 1023.5 0.0
23/09:30am W 13 18 - - - - - - - 13.1 1023.5 0.0
23/09:00am W 12 19 - - - - - - - 11.7 1023.2 0.2
23/08:30am W 13 21 - - - - - - - 10.8 1023.0 0.2
23/08:00am W 11 18 - - - - - - - 11.0 1022.6 0.2
23/07:30am W 11 17 - - - - - - - 10.9 1022.5 0.2
23/07:00am W 10 14 - - - - - - - 10.9 1022.0 0.2
23/06:30am W 11 15 - - - - - - - 10.7 1021.7 0.2
23/06:00am W 10 17 - - - - - - - 10.3 1021.3 0.2
23/05:30am WNW 8 12 - - - - - - - 9.6 1021.1 0.2
23/05:00am W 9 14 - - - - - - - 10.3 1020.8 0.2
23/04:30am W 9 13 - - - - - - - 10.0 1020.7 0.2
23/04:00am WNW 8 13 - - - - - - - 9.8 1020.4 0.2
23/03:30am WNW 9 14 - - - - - - - 9.8 1020.4 0.2
23/03:00am WNW 10 15 - - - - - - - 9.6 1020.3 0.2
23/02:30am WNW 10 14 - - - - - - - 9.8 1020.5 0.2
23/02:00am WNW 9 14 - - - - - - - 9.9 1020.3 0.2
23/01:30am WNW 9 14 - - - - - - - 9.9 1020.3 0.2
23/01:00am WNW 10 15 - - - - - - - 10.0 1020.2 0.2
23/12:30am WNW 10 15 - - - - - - - 10.0 1020.2 0.2
23/12:00am WNW 10 16 - - - - - - - 10.0 1020.1 0.2
 
Date/Time
WST
Wind Sea
Height
m
Swell Vis
km
Cloud Weather Temp
°C
Press
MSL
hPa
Rain since
9am
mm
Dir  Spd
kts
Gust
kts
Height
m
Period
s
Dir
22/11:30pm WNW 10 16 - - - - - - - 9.9 1020.2 0.2
22/11:00pm WNW 10 17 - - - - - - - 10.0 1020.1 0.2
22/10:30pm WNW 10 16 - - - - - - - 9.9 1020.0 0.2
22/10:00pm WNW 9 14 - - - - - - - 10.2 1019.9 0.2
22/09:30pm W 10 15 - - - - - - - 10.4 1019.6 0.2
22/09:00pm WNW 10 14 - - - - - - - 10.3 1019.7 0.2
22/08:30pm WNW 10 14 - - - - - - - 10.3 1019.5 0.2
22/08:00pm W 11 17 - - - - - - - 11.0 1019.3 0.2
22/07:30pm WNW 7 11 - - - - - - - 10.2 1019.1 0.2
22/07:00pm WNW 7 11 - - - - - - - 10.9 1018.9 0.2
22/06:30pm W 11 18 - - - - - - - 11.7 1018.5 0.2
22/06:00pm W 15 24 - - - - - - - 12.8 1018.0 0.2
22/05:30pm W 12 18 - - - - - - - 13.1 1017.6 0.2
22/05:00pm W 15 23 - - - - - - - 13.6 1017.0 0.2
22/04:58pm W 15 25 - - - - - - - 13.7 1017.0 0.2
22/04:30pm W 19 27 - - - - - - - 14.3 1016.5 0.2
22/04:00pm W 20 30 - - - - - - - 14.9 1016.0 0.2
22/03:30pm W 21 32 - - - - - - - 15.4 1015.5 0.2
22/03:00pm WSW 19 29 - - - - - - - 16.1 1015.1 0.2
22/02:30pm W 19 30 - - - - - - - 15.9 1014.8 0.2
22/02:10pm W 15 30 - - - - - - - 15.5 1014.8 0.2
22/02:00pm W 16 24 - - - - - - - 15.7 1014.9 0.2
22/01:32pm WSW 19 27 - - - - - - - 14.9 1014.8 0.2
22/01:30pm WSW 19 27 - - - - - - - 14.9 1014.8 0.2
22/01:07pm WSW 17 33 - - - - - - - 17.9 1014.5 0.2
22/01:00pm W 19 26 - - - - - - - 17.1 1014.4 0.2
22/12:30pm W 11 19 - - - - - - - 15.4 1014.4 0.2
22/12:00pm W 10 16 - - - - - - - 15.1 1014.5 0.2
22/11:30am WNW 7 12 - - - - - - - 14.6 1014.6 0.2
22/11:00am WNW 12 18 - - - - - - - 13.9 1015.2 0.2
22/10:30am WNW 11 17 - - - - - - - 13.9 1015.3 0.2
22/10:00am NW 10 17 - - - - - - - 13.4 1015.4 0.2
22/09:30am WNW 11 19 - - - - - - - 12.9 1015.4 0.2

Other formats

Comma delimited format used in spreadsheet applications
http://www.bom.gov.au/fwo/IDW60701/IDW60701.95635.axf

JavaScript Object Notation format (JSON) in row-major order
http://www.bom.gov.au/fwo/IDW60701/IDW60701.95635.json

Data quality

Most of these data are generated automatically and are frequently updated. Quality checks on data are not normally performed. It is possible for incorrect values to appear. Refer to information at About Latest Weather Observations and please check the disclaimer before using these data.